LFLB/CMF METAR and TAF weather

Enter ICAO airport designator
Station Type Date Time Source
LFLB METAR 2019/07/17 18:30 UTC NOAA

LFLB 171830Z AUTO 13004KT 100V180 CAVOK 24/10 Q1012 NOSIG


Station Type Date Time Source
LFLB Decoded METAR 2019/07/17 18:30 UTC NOAA

Chambery / Aix-Les-Bains, France (LFLB) 45-39N 005-53E 239M
Jul 17, 2019 - 02:30 PM EDT / 2019.07.17 1830 UTC
Wind: from the SE (130 degrees) at 5 MPH (4 KT) (direction variable):0
Visibility: greater than 7 mile(s):0
Temperature: 75 F (24 C)
Dew Point: 50 F (10 C)
Relative Humidity: 41%
Pressure (altimeter): 29.88 in. Hg (1012 hPa)
ob: LFLB 171830Z AUTO 13004KT 100V180 CAVOK 24/10 Q1012 NOSIG
cycle: 18

Station Type Date Time Source
LFLB TAF 2019/07/17 12:48 UTC NOAA

TAF LFLB 171100Z 1712/1812 36007KT CAVOK

Example: see airport list